Airfield :
LOGIN :

Register | Disclaimer

   EN    FR    IT 

 










Legend :    VFR   Marginal VFR   IFR   Intensive IFR   Very Intensive IFR
Visi :
Ceiling :
>= 8 km
>= 3000ft
5 to 8 km
1000 to 3000 ft
1500m to 5 km
500 to 1000 ft
800 to 1500m
200 to 500 ft
< 800m
< 200 ft
Symbols :   Thunderstorms  Fog  Heavy snow  Heavy precipitations  Wind > 20 kt
SIGMETs :     Misc.  Thunderstorms  Icing  Turbulence  Mountain Waves  Volcanic Ashes






- Airport Elevation : 699 ft
- IATA code : PAD


EDLP - Paderborn Lippstadt

CURRENT METAR :
  • 210020Z 27014G24KT 230V310 9999 -RA OVC006 04/03 Q1014 RERA

EXPIRED METARs :
  • 202350Z 29013G26KT 250V330 2500 RA BKN007 OVC015 04/03 Q1013
  • 202320Z 27010G21KT 240V310 9999 RA BKN008 OVC013 04/03 Q1012
  • 202250Z 29013KT 250V320 9999 SHRA BKN008 BKN015TCU OVC041 04/03 Q1012
  • 202220Z 27010G21KT 230V300 9999 SHRA OVC012TCU 05/03 Q1011

TAF TAF EDLP
Valid from the 21 at 00:00 until the 22 at 00:00 UTC


202300Z 2100/2124 25015G30KT 9999 BKN012
TEMPO 2100/2102 SHRA BKN008TCU
BECMG 2101/2103 CAVOK
BECMG 2114/2116 22010KT
TEMPO 2116/2124 22015G25KT



MET'MAP, your aeronautical weather chart ! - Copyright ORBIFLY December 2007 - Disclaimer

ORBIFLY MET'MAP TEAM :

Programming & Development : Alexandra Zaïnal
Concept & original design : Baudouin d'Aumeries
Assistance for programming : Marc-Olivier Méhu
Technical & hardware support : Manuel Goepfert

Contact : metmap@orbifly.com




SOURCES & CREDITS :

   NOAA